Time;durP1;ratioP1;P1;durP2;ratioP2;P2;SDS_P1;SDS_P2;PMS_P1;PMS_P2;Temp;Humidity;BMP_temperature;BMP_pressure;BME280_temperature;BME280_humidity;BME280_pressure;Samples;Min_cycle;Max_cycle;Signal;HPM_P1;HPM_P2
2021/07/03 00:02:15;;;;;;;15.45;13.82;;;;;;;17.99;75.05;101035.41;5016063;28;20485;-82
2021/07/03 00:04:43;;;;;;;14.82;13.27;;;;;;;17.97;75.88;101045.22;4999118;28;20103;-82
2021/07/03 00:07:10;;;;;;;16.80;14.02;;;;;;;17.87;76.25;101034.34;5002259;28;20042;-75
2021/07/03 00:09:40;;;;;;;15.90;13.30;;;;;;;17.98;75.97;101037.22;5000808;28;20050;-74
2021/07/03 00:12:08;;;;;;;15.85;13.80;;;;;;;18.00;76.54;101039.75;4998481;28;20061;-74
2021/07/03 00:14:38;;;;;;;17.55;15.30;;;;;;;17.96;76.21;101044.38;4977921;28;20055;-74
2021/07/03 00:17:05;;;;;;;17.42;14.40;;;;;;;17.63;75.92;100992.75;4978023;28;20061;-75
2021/07/03 00:19:34;;;;;;;15.60;14.05;;;;;;;17.85;76.41;101047.66;4979855;28;20113;-76
2021/07/03 00:22:04;;;;;;;17.83;13.52;;;;;;;17.80;76.86;101033.91;4980189;28;20047;-75
2021/07/03 00:24:33;;;;;;;14.90;12.52;;;;;;;17.91;75.79;101047.28;4980061;28;20046;-74
2021/07/03 00:27:02;;;;;;;19.58;14.10;;;;;;;17.94;75.10;101043.59;4997239;28;20053;-74
2021/07/03 00:29:30;;;;;;;17.48;13.75;;;;;;;17.95;75.08;101036.56;4997254;28;20053;-74
2021/07/03 00:31:58;;;;;;;17.13;14.30;;;;;;;17.85;74.86;101015.97;4997506;28;20046;-75
2021/07/03 00:34:28;;;;;;;15.40;13.57;;;;;;;17.92;74.26;101035.78;4964427;28;20117;-74
2021/07/03 00:36:56;;;;;;;15.20;13.00;;;;;;;17.83;72.71;101032.88;4978985;28;20503;-74
2021/07/03 00:39:23;;;;;;;15.55;13.43;;;;;;;17.77;74.10;101032.31;4964415;28;20046;-75
2021/07/03 00:41:51;;;;;;;17.33;13.15;;;;;;;17.73;73.60;101028.16;4997799;28;20112;-74
2021/07/03 00:44:31;;;;;;;15.20;13.60;;;;;;;17.70;73.17;101020.44;4997665;28;20050;-75
2021/07/03 00:47:06;;;;;;;16.77;13.55;;;;;;;17.76;74.45;101043.00;4996435;28;20046;-76
2021/07/03 00:49:35;;;;;;;15.98;13.43;;;;;;;17.74;72.97;101039.59;4991134;28;20077;-75
2021/07/03 00:52:06;;;;;;;14.52;12.88;;;;;;;17.41;72.38;100985.34;5019110;28;20046;-75
2021/07/03 00:54:36;;;;;;;14.73;13.00;;;;;;;17.59;72.47;101029.03;5020147;28;20034;-76
2021/07/03 00:57:05;;;;;;;14.75;13.25;;;;;;;17.68;73.06;101032.06;5009620;28;20073;-74
2021/07/03 00:59:45;;;;;;;16.88;12.82;;;;;;;17.55;72.78;101024.91;5005378;28;20039;-74
2021/07/03 01:02:18;;;;;;;15.55;13.50;;;;;;;17.47;74.12;101026.31;5021779;28;20050;-74
2021/07/03 01:04:47;;;;;;;18.10;13.38;;;;;;;17.35;74.52;101020.84;5016963;28;20136;-75
2021/07/03 01:07:15;;;;;;;15.45;12.52;;;;;;;17.39;74.16;101022.38;5014875;28;20049;-77
2021/07/03 01:09:43;;;;;;;16.25;13.93;;;;;;;17.29;75.72;101019.44;4995646;28;20550;-75
2021/07/03 01:12:10;;;;;;;16.73;13.82;;;;;;;17.18;74.64;101013.13;4996401;28;20049;-74
2021/07/03 01:14:45;;;;;;;18.42;14.45;;;;;;;17.08;75.56;100994.38;4996274;28;20072;-77
2021/07/03 01:17:14;;;;;;;16.50;13.63;;;;;;;17.09;75.55;101012.75;4996200;28;20141;-76
2021/07/03 01:19:43;;;;;;;15.43;13.80;;;;;;;17.08;76.11;101005.78;4978730;28;20046;-75
2021/07/03 01:22:12;;;;;;;16.55;14.05;;;;;;;16.91;75.61;100996.22;4996241;28;20414;-74
2021/07/03 01:24:40;;;;;;;13.75;12.27;;;;;;;16.89;74.70;101002.53;4995818;28;20054;-74
2021/07/03 01:27:14;;;;;;;13.48;12.07;;;;;;;16.81;74.11;101001.19;4995757;28;20057;-75
2021/07/03 01:29:43;;;;;;;14.80;12.52;;;;;;;16.78;75.30;101001.38;4976746;28;20077;-74
2021/07/03 01:32:10;;;;;;;13.05;11.75;;;;;;;16.83;75.19;101000.25;4976500;28;20083;-76
2021/07/03 01:34:39;;;;;;;13.07;11.75;;;;;;;16.62;74.89;100956.66;4994556;28;20052;-74
2021/07/03 01:37:06;;;;;;;14.85;13.27;;;;;;;16.86;75.82;100989.53;4995631;28;20053;-78
2021/07/03 01:39:34;;;;;;;13.52;11.93;;;;;;;16.95;75.65;100994.25;4995843;28;20081;-78
2021/07/03 01:42:02;;;;;;;13.95;12.43;;;;;;;16.86;75.53;101000.09;4995686;28;20137;-77
2021/07/03 01:44:30;;;;;;;15.13;13.52;;;;;;;16.85;76.96;101004.50;4995469;28;20053;-76
2021/07/03 01:47:01;;;;;;;17.77;13.48;;;;;;;16.81;77.50;100993.28;4994297;28;20046;-74
2021/07/03 01:49:35;;;;;;;15.35;13.68;;;;;;;16.71;77.04;100986.00;4977353;28;20043;-75
2021/07/03 01:52:02;;;;;;;;;;;;;;;16.65;77.85;100998.63;4995466;28;20050;-75
2021/07/03 01:54:30;;;;;;;16.95;12.77;;;;;;;16.74;77.80;100983.19;4995350;28;19930;-76
2021/07/03 01:56:58;;;;;;;14.50;13.02;;;;;;;16.63;77.66;100978.56;4996210;28;20398;-75
2021/07/03 01:59:28;;;;;;;15.50;13.57;;;;;;;16.62;78.09;100977.72;4996657;28;20062;-74
2021/07/03 02:01:57;;;;;;;15.68;14.05;;;;;;;16.67;78.07;100984.50;4997750;28;20053;-74
2021/07/03 02:04:25;;;;;;;15.15;13.48;;;;;;;16.71;77.77;100980.72;5014337;28;20081;-75
2021/07/03 02:06:55;;;;;;;15.35;13.60;;;;;;;16.65;78.05;100974.91;4994701;28;20455;-75
2021/07/03 02:09:25;;;;;;;16.10;13.95;;;;;;;16.65;78.81;100979.31;4994467;28;20046;-74
2021/07/03 02:11:53;;;;;;;17.77;14.13;;;;;;;16.57;78.85;100971.84;4961743;28;20050;-75
2021/07/03 02:14:22;;;;;;;16.20;14.50;;;;;;;16.65;79.06;100966.16;4994493;28;20490;-74
2021/07/03 02:16:52;;;;;;;17.92;14.43;;;;;;;16.47;78.34;100968.09;4994656;28;20039;-78
2021/07/03 02:19:20;;;;;;;17.23;13.30;;;;;;;16.59;77.99;100969.16;4994672;28;20518;-80
2021/07/03 02:21:48;;;;;;;14.57;13.05;;;;;;;16.56;78.30;100946.44;4995649;28;20046;-81
2021/07/03 02:24:15;;;;;;;15.52;13.38;;;;;;;16.67;79.39;100951.06;4992782;28;20117;-79
2021/07/03 02:26:43;;;;;;;16.00;14.18;;;;;;;16.76;78.62;100945.25;5004456;28;20050;-81
2021/07/03 02:29:13;;;;;;;17.15;14.43;;;;;;;16.70;79.07;100940.34;5010168;28;20577;-77
2021/07/03 02:31:41;;;;;;;16.92;14.50;;;;;;;16.38;80.08;100906.25;5016849;28;20092;-74
2021/07/03 02:34:10;;;;;;;18.25;15.68;;;;;;;16.46;79.86;100919.78;4997200;28;20545;-75
2021/07/03 02:36:37;;;;;;;16.50;13.88;;;;;;;16.52;79.72;100942.31;4994966;28;20046;-77
2021/07/03 02:39:05;;;;;;;16.67;14.38;;;;;;;16.44;79.95;100934.00;4994679;28;20056;-75
2021/07/03 02:41:33;;;;;;;16.00;13.55;;;;;;;16.55;79.65;100938.63;5005406;28;20076;-74
2021/07/03 02:44:03;;;;;;;15.63;13.90;;;;;;;16.53;79.79;100925.56;5014732;28;20097;-77
2021/07/03 02:46:30;;;;;;;16.90;13.65;;;;;;;16.62;79.28;100948.75;4997317;28;20052;-77
2021/07/03 02:48:58;;;;;;;14.52;13.07;;;;;;;16.66;79.08;100952.00;4998024;28;20133;-77
2021/07/03 02:51:27;;;;;;;15.05;13.55;;;;;;;16.60;79.25;100936.56;4994741;28;20043;-77
2021/07/03 02:53:55;;;;;;;14.27;12.75;;;;;;;16.62;78.60;100942.59;4976967;28;20050;-77
2021/07/03 02:56:23;;;;;;;14.23;12.75;;;;;;;16.65;78.36;100948.53;4994367;28;20052;-75
2021/07/03 02:58:53;;;;;;;15.32;12.45;;;;;;;16.62;78.53;100951.38;5006887;28;20052;-77
2021/07/03 03:01:21;;;;;;;14.63;13.10;;;;;;;16.69;78.77;100951.84;5014247;28;20061;-79
2021/07/03 03:03:48;;;;;;;15.35;13.10;;;;;;;16.75;79.41;100943.56;5014085;28;20054;-75
2021/07/03 03:06:16;;;;;;;15.32;13.82;;;;;;;16.67;79.68;100916.81;4996806;28;20512;-76
2021/07/03 03:08:45;;;;;;;14.45;12.32;;;;;;;16.74;79.28;100933.94;4980034;28;20050;-76
2021/07/03 03:11:13;;;;;;;15.27;13.57;;;;;;;16.72;79.15;100937.63;4993813;28;20050;-81
2021/07/03 03:13:39;;;;;;;15.45;13.70;;;;;;;16.66;80.09;100938.81;4994702;28;20083;-82
2021/07/03 03:16:05;;;;;;;15.50;13.90;;;;;;;16.67;80.64;100952.88;4994394;28;20482;-81
2021/07/03 03:18:34;;;;;;;14.63;13.10;;;;;;;16.59;79.54;100941.00;4995437;28;20053;-81
2021/07/03 03:21:00;;;;;;;17.05;14.35;;;;;;;16.54;79.42;100934.28;5010139;28;20070;-81
2021/07/03 03:23:26;;;;;;;17.05;14.18;;;;;;;16.34;79.78;100928.41;5014520;28;20031;-76
2021/07/03 03:25:53;;;;;;;15.27;13.63;;;;;;;16.15;80.29;100912.88;5000500;28;20077;-76
2021/07/03 03:28:19;;;;;;;18.35;14.50;;;;;;;16.24;80.37;100916.75;5017027;28;20040;-75
2021/07/03 03:30:45;;;;;;;18.05;14.63;;;;;;;16.20;79.79;100910.81;5016553;28;20034;-76
2021/07/03 03:33:10;;;;;;;15.88;14.00;;;;;;;16.27;79.79;100914.78;5009613;28;20061;-81
2021/07/03 03:35:36;;;;;;;17.85;15.60;;;;;;;16.12;80.49;100913.88;4996489;28;20042;-81
2021/07/03 03:38:03;;;;;;;21.42;17.38;;;;;;;16.09;81.38;100908.78;4994455;28;20054;-80
2021/07/03 03:40:30;;;;;;;18.98;14.38;;;;;;;15.99;80.65;100900.56;4989863;28;20050;-81
2021/07/03 03:42:56;;;;;;;19.40;15.40;;;;;;;15.94;80.96;100896.50;4993737;28;20054;-78
2021/07/03 03:45:23;;;;;;;20.80;16.05;;;;;;;15.97;81.61;100899.81;4993389;28;20042;-75
2021/07/03 03:47:51;;;;;;;19.05;15.70;;;;;;;15.97;81.86;100896.34;4993140;28;20050;-75
2021/07/03 03:50:18;;;;;;;18.45;15.57;;;;;;;15.98;81.77;100904.13;4994265;28;20472;-80
2021/07/03 03:52:45;;;;;;;19.48;16.40;;;;;;;16.08;81.59;100903.63;4994014;28;20046;-78
2021/07/03 03:55:12;;;;;;;18.95;15.07;;;;;;;16.17;81.46;100900.44;4976591;28;20434;-80
2021/07/03 03:57:38;;;;;;;21.13;17.38;;;;;;;16.10;83.06;100892.06;4996432;28;20051;-79
2021/07/03 04:00:09;;;;;;;16.17;14.40;;;;;;;16.15;80.96;100890.00;4998569;28;20054;-81
2021/07/03 04:02:37;;;;;;;16.88;13.95;;;;;;;16.08;80.91;100875.50;4996297;28;20514;-82
2021/07/03 04:05:03;;;;;;;16.58;13.85;;;;;;;16.07;81.08;100876.41;5018805;28;20077;-80
2021/07/03 04:07:30;;;;;;;18.52;14.63;;;;;;;16.12;80.89;100892.78;5007457;28;20476;-82
2021/07/03 04:09:56;;;;;;;19.70;15.43;;;;;;;16.09;81.22;100893.00;4975693;28;20388;-81
2021/07/03 04:12:24;;;;;;;18.33;14.25;;;;;;;15.97;81.68;100883.19;4993040;28;20054;-82
2021/07/03 04:14:50;;;;;;;23.63;15.55;;;;;;;15.95;81.71;100888.53;4993125;28;20046;-81
2021/07/03 04:17:16;;;;;;;19.85;15.35;;;;;;;15.92;81.90;100872.06;4992988;28;20046;-81
2021/07/03 04:19:43;;;;;;;17.48;14.73;;;;;;;16.03;81.63;100876.69;5012269;28;20046;-76
2021/07/03 04:22:09;;;;;;;18.08;15.23;;;;;;;15.77;81.73;100831.63;5006165;28;20133;-81
2021/07/03 04:24:35;;;;;;;17.17;15.30;;;;;;;16.12;81.41;100877.00;4994163;28;20521;-82
2021/07/03 04:27:05;;;;;;;17.98;15.50;;;;;;;16.06;81.21;100879.16;4996138;28;20461;-81
2021/07/03 04:29:31;;;;;;;17.33;15.55;;;;;;;16.06;82.08;100873.88;4998185;28;20054;-81
2021/07/03 04:31:57;;;;;;;20.35;15.85;;;;;;;16.13;81.85;100877.84;5013722;28;20050;-80
2021/07/03 04:34:23;;;;;;;18.80;15.70;;;;;;;16.06;82.01;100874.72;4997521;28;20486;-79
2021/07/03 04:36:50;;;;;;;19.35;17.30;;;;;;;16.05;82.01;100880.09;4996774;28;20046;-74
2021/07/03 04:39:18;;;;;;;17.67;15.55;;;;;;;15.92;82.00;100858.91;4996861;28;20054;-74
2021/07/03 04:41:44;;;;;;;20.60;16.75;;;;;;;16.02;82.09;100870.59;4996936;28;20046;-75
2021/07/03 04:44:11;;;;;;;19.38;15.40;;;;;;;16.01;81.96;100879.41;5000565;28;20054;-79
2021/07/03 04:46:40;;;;;;;17.35;15.55;;;;;;;16.10;81.61;100876.25;5004873;28;20054;-79
2021/07/03 04:49:07;;;;;;;20.30;16.90;;;;;;;15.84;81.19;100836.50;4986022;28;20062;-79
2021/07/03 04:51:33;;;;;;;19.67;16.15;;;;;;;16.05;81.52;100874.81;4998604;28;20093;-77
2021/07/03 04:54:00;;;;;;;19.10;16.55;;;;;;;16.14;82.82;100888.28;4997569;28;20058;-81
2021/07/03 04:56:28;;;;;;;17.98;16.00;;;;;;;16.13;81.11;100878.69;4997795;28;20409;-82
2021/07/03 04:58:56;;;;;;;19.58;16.23;;;;;;;16.21;81.20;100885.31;4998302;28;20097;-82
2021/07/03 05:01:25;;;;;;;17.05;15.25;;;;;;;16.17;81.44;100880.22;4992628;28;20428;-81
2021/07/03 05:04:01;;;;;;;19.67;17.58;;;;;;;16.18;82.48;100875.78;4998763;28;20069;-81
2021/07/03 05:06:32;;;;;;;19.08;16.58;;;;;;;16.25;81.97;100887.66;4997431;28;20114;-82
2021/07/03 05:08:59;;;;;;;16.67;14.55;;;;;;;16.26;81.76;100872.69;4979496;28;20046;-80
2021/07/03 05:11:28;;;;;;;18.05;15.93;;;;;;;16.27;81.39;100884.94;4996122;28;20042;-80
2021/07/03 05:13:55;;;;;;;20.25;16.98;;;;;;;16.23;82.20;100878.16;4995950;28;20050;-82
2021/07/03 05:16:23;;;;;;;20.38;16.92;;;;;;;16.27;81.87;100884.94;4995232;28;20074;-81
2021/07/03 05:18:55;;;;;;;20.50;17.95;;;;;;;16.29;82.86;100883.06;4996625;28;20104;-82
2021/07/03 05:21:23;;;;;;;19.33;17.13;;;;;;;16.22;81.76;100868.56;4997437;28;20054;-80
2021/07/03 05:23:51;;;;;;;18.63;16.70;;;;;;;16.25;82.73;100885.03;4997098;28;20053;-82
2021/07/03 05:26:21;;;;;;;21.10;17.10;;;;;;;16.17;81.86;100887.25;4997552;28;20054;-82
2021/07/03 05:28:49;;;;;;;18.10;16.02;;;;;;;16.12;82.15;100876.16;4995890;28;20119;-82
2021/07/03 05:31:17;;;;;;;18.42;16.25;;;;;;;16.22;82.48;100877.34;4997440;28;20506;-81
2021/07/03 05:33:44;;;;;;;20.42;15.35;;;;;;;16.24;81.82;100866.69;5016479;28;20046;-80
2021/07/03 05:36:12;;;;;;;17.65;14.38;;;;;;;16.38;81.39;100868.50;5010685;28;20134;-80
2021/07/03 05:38:48;;;;;;;19.13;15.75;;;;;;;16.37;81.69;100872.94;5011143;28;20046;-82
2021/07/03 05:41:16;;;;;;;18.20;16.23;;;;;;;16.26;81.77;100881.47;5000932;28;20050;-77
2021/07/03 05:43:43;;;;;;;19.42;17.02;;;;;;;16.22;82.33;100882.59;5002359;28;20046;-83
2021/07/03 05:46:11;;;;;;;19.15;16.58;;;;;;;16.22;82.54;100882.59;5001533;28;20112;-83
2021/07/03 05:48:42;;;;;;;19.13;16.20;;;;;;;16.21;82.05;100874.75;5000208;28;20057;-77
2021/07/03 05:51:09;;;;;;;18.48;16.38;;;;;;;16.20;82.77;100866.03;5002440;28;20126;-83
2021/07/03 05:53:36;;;;;;;16.85;15.05;;;;;;;16.28;81.86;100858.53;5012031;28;20120;-82
2021/07/03 05:56:02;;;;;;;18.88;15.68;;;;;;;16.36;81.29;100865.97;5013891;28;20046;-76
2021/07/03 05:58:28;;;;;;;21.17;17.75;;;;;;;16.37;81.44;100851.00;5014282;28;20045;-74
2021/07/03 06:00:54;;;;;;;17.63;15.82;;;;;;;16.41;81.61;100865.69;5019362;28;20425;-77
2021/07/03 06:03:22;;;;;;;19.83;16.83;;;;;;;16.30;81.83;100850.53;5005791;28;20050;-74
2021/07/03 06:05:49;;;;;;;21.48;17.40;;;;;;;16.27;81.74;100858.59;5009537;28;20055;-77
2021/07/03 06:08:15;;;;;;;22.80;18.30;;;;;;;16.22;81.90;100856.25;5006374;28;20051;-80
2021/07/03 06:10:41;;;;;;;20.05;17.85;;;;;;;16.18;82.08;100852.09;5002178;28;20054;-80
2021/07/03 06:13:08;;;;;;;20.83;17.92;;;;;;;16.19;82.17;100863.50;4998980;28;20053;-81
2021/07/03 06:15:34;;;;;;;21.60;18.15;;;;;;;16.16;82.23;100861.88;4998230;28;20042;-79
2021/07/03 06:18:01;;;;;;;23.52;19.50;;;;;;;16.18;82.19;100865.25;4998787;28;20054;-81
2021/07/03 06:20:27;;;;;;;25.52;21.15;;;;;;;16.03;83.11;100858.25;4997660;28;20071;-77
2021/07/03 06:22:53;;;;;;;22.67;18.20;;;;;;;16.02;82.59;100859.22;4980916;28;20047;-79
2021/07/03 06:25:18;;;;;;;20.30;16.88;;;;;;;16.15;82.30;100868.94;4978206;28;20120;-79
2021/07/03 06:27:45;;;;;;;24.35;19.55;;;;;;;16.19;82.50;100872.22;4996127;28;20137;-79
2021/07/03 06:30:11;;;;;;;23.13;19.13;;;;;;;16.13;83.08;100873.44;4995151;28;20049;-77
2021/07/03 06:32:38;;;;;;;25.45;20.70;;;;;;;15.96;83.33;100861.25;5004133;28;20045;-77
2021/07/03 06:35:05;;;;;;;22.10;18.83;;;;;;;15.97;83.81;100877.91;5011801;28;20078;-80
2021/07/03 06:37:31;;;;;;;22.70;19.13;;;;;;;15.97;84.03;100881.38;4994860;28;20051;-77
2021/07/03 06:39:58;;;;;;;23.55;18.38;;;;;;;15.98;82.83;100869.91;4994466;28;20046;-75
2021/07/03 06:42:25;;;;;;;23.25;18.80;;;;;;;16.07;83.37;100872.97;4994453;28;20506;-76
2021/07/03 06:44:51;;;;;;;26.13;20.70;;;;;;;16.25;82.88;100884.19;4993784;28;20046;-76
2021/07/03 06:47:18;;;;;;;22.80;18.92;;;;;;;16.18;82.21;100854.72;4994187;28;20046;-75
2021/07/03 06:49:45;;;;;;;22.70;18.98;;;;;;;16.37;81.99;100874.69;4993986;28;20049;-75
2021/07/03 06:52:11;;;;;;;23.38;19.83;;;;;;;16.41;82.12;100881.50;4994363;28;20042;-75
2021/07/03 06:54:39;;;;;;;24.92;20.58;;;;;;;16.31;81.69;100883.84;4994158;28;20050;-74
2021/07/03 06:57:08;;;;;;;26.63;21.00;;;;;;;16.29;82.17;100888.34;4977424;28;20057;-76
2021/07/03 06:59:35;;;;;;;27.40;19.27;;;;;;;16.43;81.81;100887.50;4996153;28;20099;-76
2021/07/03 07:02:02;;;;;;;23.92;20.33;;;;;;;16.44;81.41;100886.56;4997385;28;20521;-75
2021/07/03 07:04:32;;;;;;;25.52;20.60;;;;;;;16.44;81.95;100879.53;4996661;28;20077;-80
2021/07/03 07:07:00;;;;;;;23.00;20.10;;;;;;;16.44;80.89;100879.53;5009778;28;20049;-76
2021/07/03 07:09:26;;;;;;;22.63;18.85;;;;;;;16.60;81.19;100873.31;4987755;28;20402;-79
2021/07/03 07:11:57;;;;;;;29.00;20.42;;;;;;;16.63;81.06;100876.59;4999104;28;20039;-77
2021/07/03 07:14:23;;;;;;;22.05;18.63;;;;;;;16.69;80.28;100862.22;5006411;28;20382;-81
2021/07/03 07:16:49;;;;;;;26.70;19.60;;;;;;;16.88;80.53;100877.75;4994029;28;20054;-80
2021/07/03 07:19:16;;;;;;;26.95;19.15;;;;;;;16.93;80.57;100880.97;4996669;28;20050;-81
2021/07/03 07:21:42;;;;;;;23.40;19.30;;;;;;;17.09;79.69;100867.69;4995312;28;20054;-80
2021/07/03 07:24:08;;;;;;;22.42;19.05;;;;;;;17.38;79.07;100879.97;4994612;28;20046;-80
2021/07/03 07:26:35;;;;;;;23.05;18.48;;;;;;;17.51;79.09;100886.16;4993824;28;20049;-78
2021/07/03 07:29:01;;;;;;;23.05;18.63;;;;;;;17.65;78.42;100877.34;4990954;28;20042;-79
2021/07/03 07:31:27;;;;;;;24.02;19.67;;;;;;;17.84;77.14;100876.97;4993623;28;20042;-80
2021/07/03 07:33:53;;;;;;;25.02;19.15;;;;;;;18.09;76.51;100880.66;4993495;28;20153;-79
2021/07/03 07:36:19;;;;;;;19.58;17.55;;;;;;;18.33;75.91;100882.59;5004024;28;20054;-78
2021/07/03 07:38:45;;;;;;;19.13;16.52;;;;;;;18.47;74.96;100876.34;5014724;28;20117;-74
2021/07/03 07:41:11;;;;;;;18.80;16.65;;;;;;;18.69;73.65;100873.94;5015531;28;20026;-79
2021/07/03 07:43:38;;;;;;;20.67;17.63;;;;;;;18.75;73.47;100861.22;4996050;28;20055;-79
2021/07/03 07:46:04;;;;;;;20.25;17.45;;;;;;;18.99;72.64;100882.47;5000437;28;20547;-78
2021/07/03 07:48:34;;;;;;;22.35;18.67;;;;;;;18.87;72.77;100873.56;4996131;28;20410;-83
2021/07/03 07:51:04;;;;;;;21.27;18.00;;;;;;;18.93;72.46;100865.28;4994858;28;20046;-78
2021/07/03 07:53:31;;;;;;;23.98;18.73;;;;;;;19.11;71.87;100863.09;4994131;28;20050;-75
2021/07/03 07:55:59;;;;;;;21.73;18.63;;;;;;;19.11;71.56;100860.44;4994792;28;20054;-81
2021/07/03 07:58:26;;;;;;;22.50;19.75;;;;;;;19.15;71.85;100867.22;4991666;28;20414;-86
2021/07/03 08:00:53;;;;;;;23.45;20.20;;;;;;;19.36;71.89;100867.47;4997199;28;20110;-85
2021/07/03 08:03:19;;;;;;;21.48;18.75;;;;;;;18.98;70.89;100827.88;5008417;28;20513;-80
2021/07/03 08:05:46;;;;;;;27.00;19.08;;;;;;;18.93;72.97;100873.19;5016292;28;20062;-81
2021/07/03 08:08:13;;;;;;;23.52;18.83;;;;;;;18.90;73.03;100867.25;5002017;28;20054;-90
2021/07/03 08:10:41;;;;;;;22.17;18.90;;;;;;;18.94;73.62;100856.34;5003942;28;20042;-85
2021/07/03 08:13:08;;;;;;;25.05;20.45;;;;;;;19.22;73.05;100843.78;5002390;28;20059;-86
2021/07/03 08:15:35;;;;;;;24.02;20.55;;;;;;;19.43;72.06;100846.69;4985532;28;20057;-87
2021/07/03 08:18:04;;;;;;;22.70;20.20;;;;;;;19.48;72.13;100841.91;5002896;28;20050;-82
2021/07/03 08:20:31;;;;;;;21.63;19.13;;;;;;;19.83;70.60;100848.16;5003158;28;20042;-83
2021/07/03 08:22:57;;;;;;;22.52;19.23;;;;;;;19.82;70.84;100838.53;5002430;28;20054;-88
2021/07/03 08:25:24;;;;;;;21.27;18.88;;;;;;;20.32;68.85;100833.00;5002146;28;20042;-76
2021/07/03 08:27:54;;;;;;;23.50;19.15;;;;;;;20.00;68.88;100833.69;4997583;28;20480;-76
2021/07/03 08:30:21;;;;;;;23.17;18.63;;;;;;;20.02;69.64;100836.22;4999654;28;20053;-83
2021/07/03 08:32:47;;;;;;;22.13;17.60;;;;;;;19.81;69.60;100844.78;5013844;28;20103;-86
2021/07/03 08:35:15;;;;;;;22.98;18.92;;;;;;;19.74;69.32;100822.38;5015791;28;20042;-86
2021/07/03 08:37:43;;;;;;;18.10;16.23;;;;;;;20.13;69.77;100836.25;5002258;28;20047;-85
2021/07/03 08:40:09;;;;;;;19.60;17.33;;;;;;;20.34;68.46;100823.16;5002002;28;20058;-81
2021/07/03 08:42:36;;;;;;;17.67;15.77;;;;;;;20.50;66.94;100824.59;4984861;28;20058;-85
2021/07/03 08:45:07;;;;;;;18.40;16.58;;;;;;;20.35;68.75;100823.97;5000522;28;20047;-82
2021/07/03 08:47:45;;;;;;;17.83;16.08;;;;;;;20.66;68.50;100829.56;5000955;28;20058;-77
2021/07/03 08:50:15;;;;;;;17.98;13.88;;;;;;;20.97;65.94;100821.81;4998605;28;20131;-79
2021/07/03 08:52:41;;;;;;;16.35;14.02;;;;;;;20.95;65.35;100828.09;4999037;28;20050;-81
2021/07/03 08:55:17;;;;;;;16.17;13.73;;;;;;;20.94;66.08;100826.41;4998483;28;20054;-78
2021/07/03 08:57:54;;;;;;;14.73;12.05;;;;;;;21.02;65.66;100823.16;5000672;28;20042;-85
2021/07/03 09:00:33;;;;;;;15.63;13.57;;;;;;;21.05;66.33;100825.53;5000019;28;20054;-82
2021/07/03 09:03:08;;;;;;;14.90;13.32;;;;;;;21.01;66.22;100829.41;5002837;28;20046;-79
2021/07/03 09:05:34;;;;;;;15.43;13.15;;;;;;;20.88;66.20;100821.59;5001133;28;20042;-81
2021/07/03 09:08:07;;;;;;;14.95;13.43;;;;;;;20.67;66.40;100810.03;5013166;28;20456;-79
2021/07/03 09:10:35;;;;;;;11.13;8.57;;;;;;;20.86;66.14;100826.19;5018754;28;20052;-77
2021/07/03 09:13:03;;;;;;;8.07;6.82;;;;;;;20.92;63.83;100823.06;5017913;28;20061;-78
2021/07/03 09:15:33;;;;;;;10.40;7.18;;;;;;;20.92;63.50;100825.69;5002275;28;20055;-81
2021/07/03 09:18:02;;;;;;;11.05;7.60;;;;;;;20.92;64.13;100822.19;5001306;28;20059;-80
2021/07/03 09:20:36;;;;;;;8.30;7.07;;;;;;;21.17;63.60;100823.72;5003462;28;20065;-77
2021/07/03 09:23:09;;;;;;;8.77;7.88;;;;;;;21.00;63.39;100824.25;4985344;28;20081;-77
2021/07/03 09:25:40;;;;;;;8.88;7.88;;;;;;;21.02;63.76;100822.28;4984624;28;20078;-78
2021/07/03 09:28:15;;;;;;;9.15;7.53;;;;;;;21.41;63.26;100822.66;4987671;28;20050;-78
2021/07/03 09:30:44;;;;;;;8.02;7.20;;;;;;;21.80;61.39;100823.03;4987404;28;20208;-78
2021/07/03 09:33:25;;;;;;;6.25;5.65;;;;;;;21.93;60.29;100822.81;5001832;28;20050;-74
2021/07/03 09:35:55;;;;;;;6.28;5.68;;;;;;;21.86;60.11;100813.69;5010429;28;20042;-80
2021/07/03 09:38:34;;;;;;;6.65;5.13;;;;;;;21.91;59.82;100830.09;5006570;28;20046;-82
2021/07/03 09:41:15;;;;;;;6.78;5.70;;;;;;;21.43;62.29;100832.22;5002834;28;20050;-76
2021/07/03 09:44:03;;;;;;;5.93;5.32;;;;;;;20.66;64.02;100830.38;4997695;28;20102;-76
2021/07/03 09:46:41;;;;;;;6.18;4.70;;;;;;;21.00;63.61;100825.06;4996830;28;20507;-82
2021/07/03 09:49:14;;;;;;;6.70;5.13;;;;;;;20.99;63.66;100818.06;5000039;28;20051;-82
2021/07/03 09:51:47;;;;;;;5.72;5.03;;;;;;;20.61;64.17;100827.25;5000295;28;20093;-80
2021/07/03 09:54:17;;;;;;;5.63;4.80;;;;;;;21.10;63.42;100836.66;4996989;28;20081;-78
2021/07/03 09:56:45;;;;;;;5.15;4.60;;;;;;;21.48;62.69;100826.50;4999650;28;20046;-75
2021/07/03 09:59:12;;;;;;;5.53;4.80;;;;;;;21.37;61.63;100811.47;4996391;28;20118;-77
2021/07/03 10:01:43;;;;;;;5.30;4.03;;;;;;;21.51;61.88;100822.78;4997301;28;20113;-77
2021/07/03 10:04:11;;;;;;;5.63;3.60;;;;;;;21.58;61.01;100830.13;4998684;28;20060;-75
2021/07/03 10:07:00;;;;;;;5.40;4.40;;;;;;;21.98;60.29;100817.97;4990153;28;20538;-79
2021/07/03 10:09:52;;;;;;;4.10;3.40;;;;;;;21.81;60.36;100827.34;4986817;28;20078;-79
2021/07/03 10:12:35;;;;;;;5.22;4.30;;;;;;;21.48;61.51;100825.66;4979198;28;20053;-77
2021/07/03 10:15:01;;;;;;;5.78;3.90;;;;;;;21.62;60.93;100779.41;4991570;28;20405;-78
2021/07/03 10:17:30;;;;;;;4.28;3.70;;;;;;;21.94;60.72;100815.72;4996162;28;20141;-76
2021/07/03 10:19:57;;;;;;;5.65;4.13;;;;;;;21.78;60.01;100778.97;4998894;28;20046;-78
2021/07/03 10:22:31;;;;;;;6.03;4.50;;;;;;;21.70;60.71;100832.72;4995911;28;20049;-76
2021/07/03 10:25:14;;;;;;;5.95;5.00;;;;;;;21.62;61.22;100824.56;4989982;28;20534;-77
2021/07/03 10:27:58;;;;;;;5.35;4.50;;;;;;;21.20;62.42;100833.25;5002654;28;20081;-75
2021/07/03 10:30:33;;;;;;;5.95;4.90;;;;;;;21.19;62.43;100831.53;4978765;28;20043;-77
2021/07/03 10:33:05;;;;;;;6.55;4.90;;;;;;;20.86;63.02;100806.75;4978672;28;20054;-78
2021/07/03 10:35:51;;;;;;;5.10;3.63;;;;;;;20.84;63.28;100829.94;4991635;28;20055;-76
2021/07/03 10:38:30;;;;;;;3.85;2.78;;;;;;;21.39;62.10;100835.25;4985872;28;20043;-82
2021/07/03 10:41:14;;;;;;;4.20;2.92;;;;;;;21.85;60.63;100833.25;4996347;28;20112;-79
2021/07/03 10:43:48;;;;;;;3.90;2.75;;;;;;;21.76;60.36;100826.91;4989361;28;20057;-76
2021/07/03 10:46:33;;;;;;;4.85;2.78;;;;;;;21.61;60.29;100838.81;5007097;28;20042;-80
2021/07/03 10:49:35;;;;;;;3.10;2.58;;;;;;;21.48;60.78;100836.28;5009158;28;20057;-77
2021/07/03 10:52:23;;;;;;;3.00;2.50;;;;;;;21.74;60.24;100827.03;5010171;28;20395;-81
2021/07/03 10:54:50;;;;;;;5.15;3.00;;;;;;;21.42;60.91;100821.69;4993436;28;20047;-84
2021/07/03 10:57:26;;;;;;;3.63;2.72;;;;;;;21.63;60.44;100803.19;4971050;28;20042;-78
2021/07/03 11:00:04;;;;;;;4.25;2.95;;;;;;;21.88;60.44;100817.91;5001163;28;20130;-81
2021/07/03 11:02:31;;;;;;;6.28;3.13;;;;;;;21.84;60.59;100811.16;4999397;28;20050;-81
2021/07/03 11:05:01;;;;;;;3.35;2.95;;;;;;;22.13;59.91;100809.66;4998092;28;20487;-77
2021/07/03 11:07:32;;;;;;;3.10;2.63;;;;;;;22.25;59.78;100808.59;4996016;28;20042;-77
2021/07/03 11:10:25;;;;;;;4.28;3.40;;;;;;;21.82;60.00;100813.09;4995361;28;20050;-77
2021/07/03 11:12:57;;;;;;;6.35;3.28;;;;;;;21.78;60.82;100824.13;4992779;28;20042;-76
2021/07/03 11:15:25;;;;;;;4.43;3.30;;;;;;;21.82;60.85;100812.28;4994342;28;20085;-75
2021/07/03 11:17:55;;;;;;;5.45;3.50;;;;;;;21.84;60.96;100805.84;4975927;28;20053;-76
2021/07/03 11:20:30;;;;;;;3.78;2.83;;;;;;;21.97;60.25;100804.81;4980181;28;20058;-75
2021/07/03 11:22:58;;;;;;;3.42;3.13;;;;;;;22.17;59.73;100792.50;4995510;28;20057;-74